sensor_id;sensor_type;location;lat;lon;timestamp;P1;durP1;ratioP1;P2;durP2;ratioP2
15764;SDS011;7983;50.744;7.086;2024-01-06T00:01:15;1.20;;;0.70;;
15764;SDS011;7983;50.744;7.086;2024-01-06T00:03:44;0.68;;;0.57;;
15764;SDS011;7983;50.744;7.086;2024-01-06T00:06:13;0.90;;;0.70;;
15764;SDS011;7983;50.744;7.086;2024-01-06T00:08:39;0.75;;;0.60;;
15764;SDS011;7983;50.744;7.086;2024-01-06T00:11:05;0.90;;;0.60;;
15764;SDS011;7983;50.744;7.086;2024-01-06T00:13:33;0.68;;;0.57;;
15764;SDS011;7983;50.744;7.086;2024-01-06T00:15:58;0.63;;;0.60;;
15764;SDS011;7983;50.744;7.086;2024-01-06T00:18:28;1.00;;;0.70;;
15764;SDS011;7983;50.744;7.086;2024-01-06T00:20:53;1.02;;;0.60;;
15764;SDS011;7983;50.744;7.086;2024-01-06T00:23:19;1.45;;;0.70;;
15764;SDS011;7983;50.744;7.086;2024-01-06T00:25:47;1.02;;;0.60;;
15764;SDS011;7983;50.744;7.086;2024-01-06T00:28:12;0.65;;;0.60;;
15764;SDS011;7983;50.744;7.086;2024-01-06T00:30:38;0.63;;;0.60;;
15764;SDS011;7983;50.744;7.086;2024-01-06T00:33:04;0.60;;;0.60;;
15764;SDS011;7983;50.744;7.086;2024-01-06T00:35:29;0.95;;;0.68;;
15764;SDS011;7983;50.744;7.086;2024-01-06T00:37:58;0.73;;;0.68;;
15764;SDS011;7983;50.744;7.086;2024-01-06T00:40:25;0.90;;;0.70;;
15764;SDS011;7983;50.744;7.086;2024-01-06T00:42:51;1.00;;;0.70;;
15764;SDS011;7983;50.744;7.086;2024-01-06T00:45:17;0.90;;;0.80;;
15764;SDS011;7983;50.744;7.086;2024-01-06T00:47:43;1.00;;;0.85;;
15764;SDS011;7983;50.744;7.086;2024-01-06T00:50:11;1.08;;;0.98;;
15764;SDS011;7983;50.744;7.086;2024-01-06T00:52:37;0.98;;;0.60;;
15764;SDS011;7983;50.744;7.086;2024-01-06T00:55:02;1.02;;;0.90;;
15764;SDS011;7983;50.744;7.086;2024-01-06T00:57:28;1.40;;;0.80;;
15764;SDS011;7983;50.744;7.086;2024-01-06T00:59:54;0.77;;;0.70;;
15764;SDS011;7983;50.744;7.086;2024-01-06T01:02:22;0.77;;;0.68;;
15764;SDS011;7983;50.744;7.086;2024-01-06T01:04:47;0.80;;;0.77;;
15764;SDS011;7983;50.744;7.086;2024-01-06T01:07:15;0.82;;;0.60;;
15764;SDS011;7983;50.744;7.086;2024-01-06T01:09:43;1.13;;;0.80;;
15764;SDS011;7983;50.744;7.086;2024-01-06T01:12:10;0.90;;;0.73;;
15764;SDS011;7983;50.744;7.086;2024-01-06T01:14:36;1.33;;;0.80;;
15764;SDS011;7983;50.744;7.086;2024-01-06T01:17:04;0.80;;;0.80;;
15764;SDS011;7983;50.744;7.086;2024-01-06T01:19:30;1.35;;;0.60;;
15764;SDS011;7983;50.744;7.086;2024-01-06T01:21:58;0.77;;;0.77;;
15764;SDS011;7983;50.744;7.086;2024-01-06T01:24:26;0.73;;;0.60;;
15764;SDS011;7983;50.744;7.086;2024-01-06T01:26:51;0.80;;;0.70;;
15764;SDS011;7983;50.744;7.086;2024-01-06T01:29:19;0.88;;;0.70;;
15764;SDS011;7983;50.744;7.086;2024-01-06T01:31:47;0.70;;;0.70;;
15764;SDS011;7983;50.744;7.086;2024-01-06T01:34:13;0.90;;;0.68;;
15764;SDS011;7983;50.744;7.086;2024-01-06T01:36:38;0.70;;;0.60;;
15764;SDS011;7983;50.744;7.086;2024-01-06T01:39:09;1.77;;;0.80;;
15764;SDS011;7983;50.744;7.086;2024-01-06T01:41:37;0.75;;;0.70;;
15764;SDS011;7983;50.744;7.086;2024-01-06T01:44:02;0.63;;;0.63;;
15764;SDS011;7983;50.744;7.086;2024-01-06T01:46:31;1.55;;;0.80;;
15764;SDS011;7983;50.744;7.086;2024-01-06T01:48:57;0.93;;;0.70;;
15764;SDS011;7983;50.744;7.086;2024-01-06T01:51:27;1.00;;;0.60;;
15764;SDS011;7983;50.744;7.086;2024-01-06T01:53:55;0.52;;;0.52;;
15764;SDS011;7983;50.744;7.086;2024-01-06T01:56:22;0.90;;;0.50;;
15764;SDS011;7983;50.744;7.086;2024-01-06T01:58:49;0.75;;;0.70;;
15764;SDS011;7983;50.744;7.086;2024-01-06T02:01:15;0.70;;;0.60;;
15764;SDS011;7983;50.744;7.086;2024-01-06T02:03:42;0.88;;;0.70;;
15764;SDS011;7983;50.744;7.086;2024-01-06T02:06:10;0.60;;;0.60;;
15764;SDS011;7983;50.744;7.086;2024-01-06T02:08:36;0.70;;;0.68;;
15764;SDS011;7983;50.744;7.086;2024-01-06T02:11:03;1.00;;;0.70;;
15764;SDS011;7983;50.744;7.086;2024-01-06T02:13:36;0.85;;;0.70;;
15764;SDS011;7983;50.744;7.086;2024-01-06T02:16:06;0.70;;;0.70;;
15764;SDS011;7983;50.744;7.086;2024-01-06T02:18:32;1.20;;;0.60;;
15764;SDS011;7983;50.744;7.086;2024-01-06T02:20:59;0.93;;;0.73;;
15764;SDS011;7983;50.744;7.086;2024-01-06T02:23:25;1.13;;;0.77;;
15764;SDS011;7983;50.744;7.086;2024-01-06T02:25:56;0.90;;;0.63;;
15764;SDS011;7983;50.744;7.086;2024-01-06T02:28:24;1.38;;;1.00;;
15764;SDS011;7983;50.744;7.086;2024-01-06T02:30:50;0.80;;;0.80;;
15764;SDS011;7983;50.744;7.086;2024-01-06T02:33:15;0.97;;;0.87;;
15764;SDS011;7983;50.744;7.086;2024-01-06T02:35:42;1.00;;;0.90;;
15764;SDS011;7983;50.744;7.086;2024-01-06T02:38:10;1.43;;;0.80;;
15764;SDS011;7983;50.744;7.086;2024-01-06T02:40:35;1.17;;;1.00;;
15764;SDS011;7983;50.744;7.086;2024-01-06T02:43:01;1.10;;;1.00;;
15764;SDS011;7983;50.744;7.086;2024-01-06T02:45:27;1.10;;;0.90;;
15764;SDS011;7983;50.744;7.086;2024-01-06T02:47:55;1.20;;;1.00;;
15764;SDS011;7983;50.744;7.086;2024-01-06T02:50:22;1.80;;;0.90;;
15764;SDS011;7983;50.744;7.086;2024-01-06T02:52:48;1.20;;;1.10;;
15764;SDS011;7983;50.744;7.086;2024-01-06T02:55:14;1.20;;;1.07;;
15764;SDS011;7983;50.744;7.086;2024-01-06T02:57:39;2.43;;;1.00;;
15764;SDS011;7983;50.744;7.086;2024-01-06T03:00:07;1.20;;;1.02;;
15764;SDS011;7983;50.744;7.086;2024-01-06T03:02:33;1.33;;;1.10;;
15764;SDS011;7983;50.744;7.086;2024-01-06T03:05:01;1.65;;;1.30;;
15764;SDS011;7983;50.744;7.086;2024-01-06T03:07:27;1.73;;;1.30;;
15764;SDS011;7983;50.744;7.086;2024-01-06T03:09:55;1.70;;;1.30;;
15764;SDS011;7983;50.744;7.086;2024-01-06T03:12:20;1.33;;;1.23;;
15764;SDS011;7983;50.744;7.086;2024-01-06T03:14:48;2.45;;;1.50;;
15764;SDS011;7983;50.744;7.086;2024-01-06T03:17:14;1.33;;;1.23;;
15764;SDS011;7983;50.744;7.086;2024-01-06T03:19:40;2.77;;;1.60;;
15764;SDS011;7983;50.744;7.086;2024-01-06T03:22:08;1.75;;;1.60;;
15764;SDS011;7983;50.744;7.086;2024-01-06T03:24:33;2.00;;;1.70;;
15764;SDS011;7983;50.744;7.086;2024-01-06T03:26:59;1.70;;;1.50;;
15764;SDS011;7983;50.744;7.086;2024-01-06T03:29:29;2.50;;;1.83;;
15764;SDS011;7983;50.744;7.086;2024-01-06T03:31:57;2.43;;;1.90;;
15764;SDS011;7983;50.744;7.086;2024-01-06T03:34:22;2.40;;;2.07;;
15764;SDS011;7983;50.744;7.086;2024-01-06T03:36:50;2.10;;;1.90;;
15764;SDS011;7983;50.744;7.086;2024-01-06T03:39:16;1.97;;;1.73;;
15764;SDS011;7983;50.744;7.086;2024-01-06T03:41:42;2.33;;;1.97;;
15764;SDS011;7983;50.744;7.086;2024-01-06T03:44:07;2.47;;;2.13;;
15764;SDS011;7983;50.744;7.086;2024-01-06T03:46:35;2.43;;;2.07;;
15764;SDS011;7983;50.744;7.086;2024-01-06T03:49:01;2.50;;;2.13;;
15764;SDS011;7983;50.744;7.086;2024-01-06T03:51:26;2.90;;;2.50;;
15764;SDS011;7983;50.744;7.086;2024-01-06T03:53:54;2.53;;;2.27;;
15764;SDS011;7983;50.744;7.086;2024-01-06T03:56:20;3.33;;;2.57;;
15764;SDS011;7983;50.744;7.086;2024-01-06T03:58:48;2.90;;;2.60;;
15764;SDS011;7983;50.744;7.086;2024-01-06T04:01:13;2.90;;;2.40;;
15764;SDS011;7983;50.744;7.086;2024-01-06T04:03:41;2.43;;;2.23;;
15764;SDS011;7983;50.744;7.086;2024-01-06T04:06:09;2.93;;;2.30;;
15764;SDS011;7983;50.744;7.086;2024-01-06T04:08:38;2.63;;;2.33;;
15764;SDS011;7983;50.744;7.086;2024-01-06T04:11:05;2.37;;;2.00;;
15764;SDS011;7983;50.744;7.086;2024-01-06T04:13:35;3.37;;;2.60;;
15764;SDS011;7983;50.744;7.086;2024-01-06T04:16:05;2.50;;;2.30;;
15764;SDS011;7983;50.744;7.086;2024-01-06T04:18:36;2.77;;;2.50;;
15764;SDS011;7983;50.744;7.086;2024-01-06T04:21:03;2.70;;;2.30;;
15764;SDS011;7983;50.744;7.086;2024-01-06T04:23:33;3.40;;;2.90;;
15764;SDS011;7983;50.744;7.086;2024-01-06T04:25:59;3.27;;;2.63;;
15764;SDS011;7983;50.744;7.086;2024-01-06T04:28:26;4.27;;;3.07;;
15764;SDS011;7983;50.744;7.086;2024-01-06T04:30:54;3.83;;;2.97;;
15764;SDS011;7983;50.744;7.086;2024-01-06T04:33:22;3.63;;;2.80;;
15764;SDS011;7983;50.744;7.086;2024-01-06T04:35:47;3.70;;;3.27;;
15764;SDS011;7983;50.744;7.086;2024-01-06T04:38:13;4.17;;;3.57;;
15764;SDS011;7983;50.744;7.086;2024-01-06T04:40:39;4.82;;;3.45;;
15764;SDS011;7983;50.744;7.086;2024-01-06T04:43:04;4.30;;;3.58;;
15764;SDS011;7983;50.744;7.086;2024-01-06T04:45:30;4.90;;;3.80;;
15764;SDS011;7983;50.744;7.086;2024-01-06T04:47:55;4.83;;;3.57;;
15764;SDS011;7983;50.744;7.086;2024-01-06T04:50:23;4.93;;;3.70;;
15764;SDS011;7983;50.744;7.086;2024-01-06T04:52:51;4.37;;;3.97;;
15764;SDS011;7983;50.744;7.086;2024-01-06T04:55:17;4.63;;;3.53;;
15764;SDS011;7983;50.744;7.086;2024-01-06T04:57:42;4.07;;;3.67;;
15764;SDS011;7983;50.744;7.086;2024-01-06T05:00:08;5.23;;;3.57;;
15764;SDS011;7983;50.744;7.086;2024-01-06T05:02:34;5.53;;;3.37;;
15764;SDS011;7983;50.744;7.086;2024-01-06T05:05:02;4.30;;;3.75;;
15764;SDS011;7983;50.744;7.086;2024-01-06T05:07:27;4.78;;;3.60;;
15764;SDS011;7983;50.744;7.086;2024-01-06T05:09:55;4.80;;;4.00;;
15764;SDS011;7983;50.744;7.086;2024-01-06T05:12:21;4.47;;;3.80;;
15764;SDS011;7983;50.744;7.086;2024-01-06T05:14:46;4.47;;;3.90;;
15764;SDS011;7983;50.744;7.086;2024-01-06T05:17:12;4.10;;;3.70;;
15764;SDS011;7983;50.744;7.086;2024-01-06T05:19:42;4.03;;;3.40;;
15764;SDS011;7983;50.744;7.086;2024-01-06T05:22:13;5.10;;;3.63;;
15764;SDS011;7983;50.744;7.086;2024-01-06T05:24:43;3.93;;;3.30;;
15764;SDS011;7983;50.744;7.086;2024-01-06T05:27:12;4.30;;;3.17;;
15764;SDS011;7983;50.744;7.086;2024-01-06T05:29:37;4.20;;;3.40;;
15764;SDS011;7983;50.744;7.086;2024-01-06T05:32:08;4.63;;;3.30;;
15764;SDS011;7983;50.744;7.086;2024-01-06T05:34:39;3.70;;;3.15;;
15764;SDS011;7983;50.744;7.086;2024-01-06T05:37:07;4.67;;;3.10;;
15764;SDS011;7983;50.744;7.086;2024-01-06T05:39:32;3.80;;;2.90;;
15764;SDS011;7983;50.744;7.086;2024-01-06T05:42:01;5.23;;;3.73;;
15764;SDS011;7983;50.744;7.086;2024-01-06T05:44:26;4.25;;;3.55;;
15764;SDS011;7983;50.744;7.086;2024-01-06T05:46:52;4.37;;;3.47;;
15764;SDS011;7983;50.744;7.086;2024-01-06T05:49:20;4.23;;;3.73;;
15764;SDS011;7983;50.744;7.086;2024-01-06T05:51:48;4.13;;;3.13;;
15764;SDS011;7983;50.744;7.086;2024-01-06T05:54:14;5.55;;;3.90;;
15764;SDS011;7983;50.744;7.086;2024-01-06T05:56:40;4.50;;;3.77;;
15764;SDS011;7983;50.744;7.086;2024-01-06T05:59:10;5.57;;;3.83;;
15764;SDS011;7983;50.744;7.086;2024-01-06T06:01:36;5.23;;;4.33;;
15764;SDS011;7983;50.744;7.086;2024-01-06T06:04:01;6.73;;;4.70;;
15764;SDS011;7983;50.744;7.086;2024-01-06T06:06:27;5.93;;;4.70;;
15764;SDS011;7983;50.744;7.086;2024-01-06T06:08:55;6.57;;;4.57;;
15764;SDS011;7983;50.744;7.086;2024-01-06T06:11:23;6.43;;;4.87;;
15764;SDS011;7983;50.744;7.086;2024-01-06T06:13:50;6.83;;;5.57;;
15764;SDS011;7983;50.744;7.086;2024-01-06T06:16:16;9.03;;;6.53;;
15764;SDS011;7983;50.744;7.086;2024-01-06T06:18:41;9.47;;;6.80;;
15764;SDS011;7983;50.744;7.086;2024-01-06T06:21:09;10.60;;;7.80;;
15764;SDS011;7983;50.744;7.086;2024-01-06T06:23:35;14.10;;;9.67;;
15764;SDS011;7983;50.744;7.086;2024-01-06T06:26:07;11.23;;;8.30;;
15764;SDS011;7983;50.744;7.086;2024-01-06T06:28:36;13.27;;;8.90;;
15764;SDS011;7983;50.744;7.086;2024-01-06T06:31:04;10.90;;;7.97;;
15764;SDS011;7983;50.744;7.086;2024-01-06T06:33:30;11.67;;;8.03;;
15764;SDS011;7983;50.744;7.086;2024-01-06T06:35:56;12.00;;;8.10;;
15764;SDS011;7983;50.744;7.086;2024-01-06T06:38:21;11.67;;;7.80;;
15764;SDS011;7983;50.744;7.086;2024-01-06T06:40:47;12.93;;;8.80;;
15764;SDS011;7983;50.744;7.086;2024-01-06T06:43:13;11.40;;;8.03;;
15764;SDS011;7983;50.744;7.086;2024-01-06T06:45:41;12.27;;;8.47;;
15764;SDS011;7983;50.744;7.086;2024-01-06T06:48:09;10.87;;;7.57;;
15764;SDS011;7983;50.744;7.086;2024-01-06T06:50:37;9.50;;;7.00;;
15764;SDS011;7983;50.744;7.086;2024-01-06T06:53:03;10.77;;;7.47;;
15764;SDS011;7983;50.744;7.086;2024-01-06T06:55:28;9.53;;;6.80;;
15764;SDS011;7983;50.744;7.086;2024-01-06T06:57:56;8.83;;;6.57;;
15764;SDS011;7983;50.744;7.086;2024-01-06T07:00:22;10.50;;;6.87;;
15764;SDS011;7983;50.744;7.086;2024-01-06T07:02:47;8.77;;;6.27;;
15764;SDS011;7983;50.744;7.086;2024-01-06T07:05:13;8.73;;;5.87;;
15764;SDS011;7983;50.744;7.086;2024-01-06T07:07:39;9.07;;;5.83;;
15764;SDS011;7983;50.744;7.086;2024-01-06T07:10:09;8.00;;;5.90;;
15764;SDS011;7983;50.744;7.086;2024-01-06T07:12:40;9.73;;;5.87;;
15764;SDS011;7983;50.744;7.086;2024-01-06T07:15:08;8.43;;;5.87;;
15764;SDS011;7983;50.744;7.086;2024-01-06T07:17:37;7.57;;;5.23;;
15764;SDS011;7983;50.744;7.086;2024-01-06T07:20:04;7.90;;;5.10;;
15764;SDS011;7983;50.744;7.086;2024-01-06T07:22:32;8.43;;;5.47;;
15764;SDS011;7983;50.744;7.086;2024-01-06T07:25:00;8.27;;;5.67;;
15764;SDS011;7983;50.744;7.086;2024-01-06T07:27:26;7.40;;;5.50;;
15764;SDS011;7983;50.744;7.086;2024-01-06T07:29:52;7.37;;;5.37;;
15764;SDS011;7983;50.744;7.086;2024-01-06T07:32:17;7.83;;;5.13;;
15764;SDS011;7983;50.744;7.086;2024-01-06T07:34:43;8.37;;;5.20;;
15764;SDS011;7983;50.744;7.086;2024-01-06T07:37:09;7.47;;;5.20;;
15764;SDS011;7983;50.744;7.086;2024-01-06T07:39:34;9.07;;;6.23;;
15764;SDS011;7983;50.744;7.086;2024-01-06T07:42:02;15.33;;;10.60;;
15764;SDS011;7983;50.744;7.086;2024-01-06T07:44:31;10.70;;;7.47;;
15764;SDS011;7983;50.744;7.086;2024-01-06T07:47:00;8.77;;;6.70;;
15764;SDS011;7983;50.744;7.086;2024-01-06T07:49:30;10.30;;;6.73;;
15764;SDS011;7983;50.744;7.086;2024-01-06T07:51:55;9.60;;;6.50;;
15764;SDS011;7983;50.744;7.086;2024-01-06T07:54:23;9.43;;;6.77;;
15764;SDS011;7983;50.744;7.086;2024-01-06T07:56:49;9.30;;;6.53;;
15764;SDS011;7983;50.744;7.086;2024-01-06T07:59:14;8.57;;;6.10;;
15764;SDS011;7983;50.744;7.086;2024-01-06T08:01:40;9.50;;;6.50;;
15764;SDS011;7983;50.744;7.086;2024-01-06T08:04:08;8.30;;;5.67;;
15764;SDS011;7983;50.744;7.086;2024-01-06T08:06:34;8.33;;;5.90;;
15764;SDS011;7983;50.744;7.086;2024-01-06T08:09:04;7.00;;;4.83;;
15764;SDS011;7983;50.744;7.086;2024-01-06T08:11:33;6.87;;;4.57;;
15764;SDS011;7983;50.744;7.086;2024-01-06T08:14:04;7.53;;;5.10;;
15764;SDS011;7983;50.744;7.086;2024-01-06T08:16:29;8.67;;;5.20;;
15764;SDS011;7983;50.744;7.086;2024-01-06T08:18:55;8.20;;;5.23;;
15764;SDS011;7983;50.744;7.086;2024-01-06T08:21:23;8.23;;;5.27;;
15764;SDS011;7983;50.744;7.086;2024-01-06T08:23:50;8.33;;;5.43;;
15764;SDS011;7983;50.744;7.086;2024-01-06T08:26:18;7.63;;;5.33;;
15764;SDS011;7983;50.744;7.086;2024-01-06T08:28:44;8.67;;;5.37;;
15764;SDS011;7983;50.744;7.086;2024-01-06T08:31:12;7.10;;;5.07;;
15764;SDS011;7983;50.744;7.086;2024-01-06T08:33:40;10.17;;;5.37;;
15764;SDS011;7983;50.744;7.086;2024-01-06T08:36:07;7.97;;;5.33;;
15764;SDS011;7983;50.744;7.086;2024-01-06T08:38:34;8.17;;;5.13;;
15764;SDS011;7983;50.744;7.086;2024-01-06T08:41:03;7.17;;;4.70;;
15764;SDS011;7983;50.744;7.086;2024-01-06T08:43:28;8.37;;;5.67;;
15764;SDS011;7983;50.744;7.086;2024-01-06T08:45:54;8.70;;;5.20;;
15764;SDS011;7983;50.744;7.086;2024-01-06T08:48:25;8.83;;;6.00;;
15764;SDS011;7983;50.744;7.086;2024-01-06T08:50:53;8.90;;;6.20;;
15764;SDS011;7983;50.744;7.086;2024-01-06T08:53:20;9.73;;;6.10;;
15764;SDS011;7983;50.744;7.086;2024-01-06T08:55:51;10.30;;;6.50;;
15764;SDS011;7983;50.744;7.086;2024-01-06T08:58:16;8.37;;;5.67;;
15764;SDS011;7983;50.744;7.086;2024-01-06T09:00:42;11.13;;;7.50;;
15764;SDS011;7983;50.744;7.086;2024-01-06T09:03:11;10.93;;;6.63;;
15764;SDS011;7983;50.744;7.086;2024-01-06T09:05:39;11.70;;;7.07;;
15764;SDS011;7983;50.744;7.086;2024-01-06T09:08:10;10.33;;;7.10;;
15764;SDS011;7983;50.744;7.086;2024-01-06T09:10:36;10.47;;;6.87;;
15764;SDS011;7983;50.744;7.086;2024-01-06T09:13:04;10.63;;;6.60;;
15764;SDS011;7983;50.744;7.086;2024-01-06T09:15:29;11.40;;;5.90;;
15764;SDS011;7983;50.744;7.086;2024-01-06T09:17:57;11.03;;;7.33;;
15764;SDS011;7983;50.744;7.086;2024-01-06T09:20:23;11.13;;;6.83;;
15764;SDS011;7983;50.744;7.086;2024-01-06T09:22:52;11.30;;;7.60;;
15764;SDS011;7983;50.744;7.086;2024-01-06T09:25:18;12.43;;;7.50;;
15764;SDS011;7983;50.744;7.086;2024-01-06T09:27:43;11.30;;;7.20;;
15764;SDS011;7983;50.744;7.086;2024-01-06T09:30:09;11.13;;;6.87;;
15764;SDS011;7983;50.744;7.086;2024-01-06T09:32:35;9.63;;;6.43;;
15764;SDS011;7983;50.744;7.086;2024-01-06T09:35:01;10.50;;;6.87;;
15764;SDS011;7983;50.744;7.086;2024-01-06T09:37:29;10.37;;;6.77;;
15764;SDS011;7983;50.744;7.086;2024-01-06T09:39:57;10.10;;;6.60;;
15764;SDS011;7983;50.744;7.086;2024-01-06T09:42:25;9.77;;;6.10;;
15764;SDS011;7983;50.744;7.086;2024-01-06T09:44:51;10.30;;;6.47;;
15764;SDS011;7983;50.744;7.086;2024-01-06T09:47:18;10.10;;;6.97;;
15764;SDS011;7983;50.744;7.086;2024-01-06T09:49:49;11.10;;;7.57;;
15764;SDS011;7983;50.744;7.086;2024-01-06T09:52:15;14.03;;;7.80;;
15764;SDS011;7983;50.744;7.086;2024-01-06T09:54:50;11.13;;;7.13;;
15764;SDS011;7983;50.744;7.086;2024-01-06T09:57:17;13.37;;;7.00;;
15764;SDS011;7983;50.744;7.086;2024-01-06T09:59:46;10.40;;;6.40;;
15764;SDS011;7983;50.744;7.086;2024-01-06T10:02:15;10.97;;;6.83;;
15764;SDS011;7983;50.744;7.086;2024-01-06T10:04:42;10.63;;;7.00;;
15764;SDS011;7983;50.744;7.086;2024-01-06T10:07:13;11.23;;;7.63;;
15764;SDS011;7983;50.744;7.086;2024-01-06T10:09:41;10.00;;;6.37;;
15764;SDS011;7983;50.744;7.086;2024-01-06T10:12:09;11.43;;;7.23;;
15764;SDS011;7983;50.744;7.086;2024-01-06T10:14:37;11.93;;;7.20;;
15764;SDS011;7983;50.744;7.086;2024-01-06T10:17:06;9.07;;;5.90;;
15764;SDS011;7983;50.744;7.086;2024-01-06T10:19:36;9.50;;;6.00;;
15764;SDS011;7983;50.744;7.086;2024-01-06T10:22:04;10.20;;;6.63;;
15764;SDS011;7983;50.744;7.086;2024-01-06T10:24:32;9.10;;;6.33;;
15764;SDS011;7983;50.744;7.086;2024-01-06T10:26:57;8.87;;;5.70;;
15764;SDS011;7983;50.744;7.086;2024-01-06T10:29:28;9.63;;;5.80;;
15764;SDS011;7983;50.744;7.086;2024-01-06T10:31:56;9.33;;;5.07;;
15764;SDS011;7983;50.744;7.086;2024-01-06T10:34:25;9.80;;;6.03;;
15764;SDS011;7983;50.744;7.086;2024-01-06T10:36:54;7.53;;;5.30;;
15764;SDS011;7983;50.744;7.086;2024-01-06T10:39:22;8.97;;;5.53;;
15764;SDS011;7983;50.744;7.086;2024-01-06T10:41:50;7.73;;;5.20;;
15764;SDS011;7983;50.744;7.086;2024-01-06T10:44:21;8.47;;;5.30;;
15764;SDS011;7983;50.744;7.086;2024-01-06T10:46:48;9.10;;;5.50;;
15764;SDS011;7983;50.744;7.086;2024-01-06T10:49:15;7.83;;;5.10;;
15764;SDS011;7983;50.744;7.086;2024-01-06T10:51:46;7.70;;;5.00;;
15764;SDS011;7983;50.744;7.086;2024-01-06T10:54:16;9.17;;;5.33;;
15764;SDS011;7983;50.744;7.086;2024-01-06T10:56:45;7.20;;;4.80;;
15764;SDS011;7983;50.744;7.086;2024-01-06T10:59:12;7.07;;;4.60;;
15764;SDS011;7983;50.744;7.086;2024-01-06T11:01:39;6.33;;;4.43;;
15764;SDS011;7983;50.744;7.086;2024-01-06T11:04:06;6.17;;;4.50;;
15764;SDS011;7983;50.744;7.086;2024-01-06T11:06:34;6.37;;;4.30;;
15764;SDS011;7983;50.744;7.086;2024-01-06T11:09:11;5.13;;;3.63;;
15764;SDS011;7983;50.744;7.086;2024-01-06T11:11:46;5.87;;;3.90;;
15764;SDS011;7983;50.744;7.086;2024-01-06T11:16:47;6.10;;;4.33;;
15764;SDS011;7983;50.744;7.086;2024-01-06T11:19:42;5.37;;;3.73;;
15764;SDS011;7983;50.744;7.086;2024-01-06T11:25:12;6.03;;;4.07;;
15764;SDS011;7983;50.744;7.086;2024-01-06T11:27:40;6.23;;;3.70;;
15764;SDS011;7983;50.744;7.086;2024-01-06T11:30:08;5.43;;;4.30;;
15764;SDS011;7983;50.744;7.086;2024-01-06T11:32:48;5.40;;;3.80;;
15764;SDS011;7983;50.744;7.086;2024-01-06T11:35:18;6.00;;;4.10;;
15764;SDS011;7983;50.744;7.086;2024-01-06T11:40:17;6.43;;;4.37;;
15764;SDS011;7983;50.744;7.086;2024-01-06T11:42:57;6.37;;;4.20;;
15764;SDS011;7983;50.744;7.086;2024-01-06T11:45:24;5.70;;;4.37;;
15764;SDS011;7983;50.744;7.086;2024-01-06T11:47:50;6.03;;;4.07;;
15764;SDS011;7983;50.744;7.086;2024-01-06T11:50:33;7.90;;;4.67;;
15764;SDS011;7983;50.744;7.086;2024-01-06T11:53:03;5.63;;;4.10;;
15764;SDS011;7983;50.744;7.086;2024-01-06T11:55:29;7.67;;;4.73;;
15764;SDS011;7983;50.744;7.086;2024-01-06T11:57:59;7.40;;;4.93;;
15764;SDS011;7983;50.744;7.086;2024-01-06T12:00:31;6.30;;;4.57;;
15764;SDS011;7983;50.744;7.086;2024-01-06T12:03:01;6.23;;;4.40;;
15764;SDS011;7983;50.744;7.086;2024-01-06T12:05:27;5.53;;;4.27;;
15764;SDS011;7983;50.744;7.086;2024-01-06T12:10:24;7.23;;;4.90;;
15764;SDS011;7983;50.744;7.086;2024-01-06T12:12:58;7.07;;;5.00;;
15764;SDS011;7983;50.744;7.086;2024-01-06T12:15:28;7.00;;;4.67;;
15764;SDS011;7983;50.744;7.086;2024-01-06T12:17:57;7.43;;;4.50;;
15764;SDS011;7983;50.744;7.086;2024-01-06T12:20:24;8.93;;;5.20;;
15764;SDS011;7983;50.744;7.086;2024-01-06T12:22:51;8.33;;;5.47;;
15764;SDS011;7983;50.744;7.086;2024-01-06T12:25:22;7.60;;;4.77;;
15764;SDS011;7983;50.744;7.086;2024-01-06T12:27:54;9.27;;;5.87;;
15764;SDS011;7983;50.744;7.086;2024-01-06T12:30:21;9.33;;;5.80;;
15764;SDS011;7983;50.744;7.086;2024-01-06T12:32:48;7.07;;;4.93;;
15764;SDS011;7983;50.744;7.086;2024-01-06T12:35:17;6.90;;;4.93;;
15764;SDS011;7983;50.744;7.086;2024-01-06T12:37:47;8.10;;;5.03;;
15764;SDS011;7983;50.744;7.086;2024-01-06T12:40:13;7.07;;;4.80;;
15764;SDS011;7983;50.744;7.086;2024-01-06T12:42:41;8.80;;;5.20;;
15764;SDS011;7983;50.744;7.086;2024-01-06T12:45:09;6.43;;;4.40;;
15764;SDS011;7983;50.744;7.086;2024-01-06T12:47:36;7.50;;;4.57;;
15764;SDS011;7983;50.744;7.086;2024-01-06T12:50:02;6.57;;;4.53;;
15764;SDS011;7983;50.744;7.086;2024-01-06T12:52:29;7.20;;;4.70;;
15764;SDS011;7983;50.744;7.086;2024-01-06T12:54:58;6.27;;;4.33;;
15764;SDS011;7983;50.744;7.086;2024-01-06T12:57:24;7.67;;;5.17;;
15764;SDS011;7983;50.744;7.086;2024-01-06T12:59:50;7.37;;;4.87;;
15764;SDS011;7983;50.744;7.086;2024-01-06T13:02:15;7.80;;;5.07;;
15764;SDS011;7983;50.744;7.086;2024-01-06T13:04:41;7.60;;;4.53;;
15764;SDS011;7983;50.744;7.086;2024-01-06T13:07:07;7.20;;;4.80;;
15764;SDS011;7983;50.744;7.086;2024-01-06T13:09:32;6.63;;;4.60;;
15764;SDS011;7983;50.744;7.086;2024-01-06T13:11:59;8.60;;;5.40;;
15764;SDS011;7983;50.744;7.086;2024-01-06T13:14:26;6.67;;;4.77;;
15764;SDS011;7983;50.744;7.086;2024-01-06T13:16:52;8.50;;;5.53;;
15764;SDS011;7983;50.744;7.086;2024-01-06T13:19:17;8.20;;;5.70;;
15764;SDS011;7983;50.744;7.086;2024-01-06T13:21:47;9.20;;;6.00;;
15764;SDS011;7983;50.744;7.086;2024-01-06T13:24:12;8.23;;;5.53;;
15764;SDS011;7983;50.744;7.086;2024-01-06T13:26:43;8.33;;;5.87;;
15764;SDS011;7983;50.744;7.086;2024-01-06T13:29:08;6.93;;;4.97;;
15764;SDS011;7983;50.744;7.086;2024-01-06T13:31:36;7.70;;;5.10;;
15764;SDS011;7983;50.744;7.086;2024-01-06T13:34:02;6.17;;;4.17;;
15764;SDS011;7983;50.744;7.086;2024-01-06T13:36:30;7.57;;;4.67;;
15764;SDS011;7983;50.744;7.086;2024-01-06T13:38:56;9.37;;;5.70;;
15764;SDS011;7983;50.744;7.086;2024-01-06T13:41:24;8.43;;;5.20;;
15764;SDS011;7983;50.744;7.086;2024-01-06T13:43:52;11.63;;;5.80;;
15764;SDS011;7983;50.744;7.086;2024-01-06T13:46:20;8.23;;;5.60;;
15764;SDS011;7983;50.744;7.086;2024-01-06T13:48:46;8.77;;;5.80;;
15764;SDS011;7983;50.744;7.086;2024-01-06T13:51:11;10.00;;;5.57;;
15764;SDS011;7983;50.744;7.086;2024-01-06T13:53:37;8.67;;;5.73;;
15764;SDS011;7983;50.744;7.086;2024-01-06T13:56:03;9.17;;;5.80;;
15764;SDS011;7983;50.744;7.086;2024-01-06T13:58:32;7.90;;;5.17;;
15764;SDS011;7983;50.744;7.086;2024-01-06T14:01:00;9.90;;;6.57;;
15764;SDS011;7983;50.744;7.086;2024-01-06T14:03:26;7.97;;;5.63;;
15764;SDS011;7983;50.744;7.086;2024-01-06T14:05:52;9.80;;;6.23;;
15764;SDS011;7983;50.744;7.086;2024-01-06T14:08:18;9.10;;;5.83;;
15764;SDS011;7983;50.744;7.086;2024-01-06T14:10:47;8.97;;;5.70;;
15764;SDS011;7983;50.744;7.086;2024-01-06T14:13:14;9.43;;;6.23;;
15764;SDS011;7983;50.744;7.086;2024-01-06T14:15:41;10.23;;;6.53;;
15764;SDS011;7983;50.744;7.086;2024-01-06T14:18:08;8.77;;;6.20;;
15764;SDS011;7983;50.744;7.086;2024-01-06T14:20:37;10.83;;;6.63;;
15764;SDS011;7983;50.744;7.086;2024-01-06T14:23:04;10.33;;;6.67;;
15764;SDS011;7983;50.744;7.086;2024-01-06T14:25:29;9.20;;;6.33;;
15764;SDS011;7983;50.744;7.086;2024-01-06T14:27:55;11.20;;;6.70;;
15764;SDS011;7983;50.744;7.086;2024-01-06T14:30:20;9.40;;;6.30;;
15764;SDS011;7983;50.744;7.086;2024-01-06T14:32:46;8.90;;;5.87;;
15764;SDS011;7983;50.744;7.086;2024-01-06T14:35:11;10.67;;;6.73;;
15764;SDS011;7983;50.744;7.086;2024-01-06T14:37:39;10.77;;;7.00;;
15764;SDS011;7983;50.744;7.086;2024-01-06T14:40:06;11.17;;;6.70;;
15764;SDS011;7983;50.744;7.086;2024-01-06T14:42:32;10.53;;;6.57;;
15764;SDS011;7983;50.744;7.086;2024-01-06T14:45:01;9.90;;;6.33;;
15764;SDS011;7983;50.744;7.086;2024-01-06T14:47:29;10.00;;;5.90;;
15764;SDS011;7983;50.744;7.086;2024-01-06T14:49:57;8.30;;;5.43;;
15764;SDS011;7983;50.744;7.086;2024-01-06T14:52:25;9.87;;;5.57;;
15764;SDS011;7983;50.744;7.086;2024-01-06T14:54:53;9.13;;;6.03;;
15764;SDS011;7983;50.744;7.086;2024-01-06T14:57:18;11.27;;;6.70;;
15764;SDS011;7983;50.744;7.086;2024-01-06T14:59:46;9.30;;;6.27;;
15764;SDS011;7983;50.744;7.086;2024-01-06T15:02:14;9.53;;;6.03;;
15764;SDS011;7983;50.744;7.086;2024-01-06T15:04:42;10.50;;;6.70;;
15764;SDS011;7983;50.744;7.086;2024-01-06T15:07:07;8.97;;;5.53;;
15764;SDS011;7983;50.744;7.086;2024-01-06T15:09:39;8.17;;;5.40;;